sensor_id;sensor_type;location;lat;lon;timestamp;pressure;altitude;pressure_sealevel;temperature;humidity
71457;BME280;59263;48.160;11.752;2023-04-30T00:02:18;96065.13;;;10.58;100.00
71457;BME280;59263;48.160;11.752;2023-04-30T00:04:44;96054.22;;;10.45;100.00
71457;BME280;59263;48.160;11.752;2023-04-30T00:07:09;96066.09;;;10.48;100.00
71457;BME280;59263;48.160;11.752;2023-04-30T00:09:34;96070.31;;;10.58;100.00
71457;BME280;59263;48.160;11.752;2023-04-30T00:12:00;96061.84;;;10.56;100.00
71457;BME280;59263;48.160;11.752;2023-04-30T00:14:25;96057.25;;;10.50;100.00
71457;BME280;59263;48.160;11.752;2023-04-30T00:16:50;96064.06;;;10.61;100.00
71457;BME280;59263;48.160;11.752;2023-04-30T00:19:16;96065.25;;;10.66;100.00
71457;BME280;59263;48.160;11.752;2023-04-30T00:21:41;96067.69;;;10.78;100.00
71457;BME280;59263;48.160;11.752;2023-04-30T00:24:06;96065.38;;;10.84;100.00
71457;BME280;59263;48.160;11.752;2023-04-30T00:26:32;96057.50;;;10.76;100.00
71457;BME280;59263;48.160;11.752;2023-04-30T00:28:57;96063.59;;;10.85;100.00
71457;BME280;59263;48.160;11.752;2023-04-30T00:31:22;96059.38;;;10.84;100.00
71457;BME280;59263;48.160;11.752;2023-04-30T00:33:48;96070.00;;;10.71;100.00
71457;BME280;59263;48.160;11.752;2023-04-30T00:36:13;96077.25;;;10.77;100.00
71457;BME280;59263;48.160;11.752;2023-04-30T00:38:38;96053.81;;;10.69;100.00
71457;BME280;59263;48.160;11.752;2023-04-30T00:41:04;96076.00;;;10.81;100.00
71457;BME280;59263;48.160;11.752;2023-04-30T00:43:29;96070.59;;;10.65;100.00
71457;BME280;59263;48.160;11.752;2023-04-30T00:45:55;96077.50;;;10.74;100.00
71457;BME280;59263;48.160;11.752;2023-04-30T00:48:21;96082.72;;;10.64;100.00
71457;BME280;59263;48.160;11.752;2023-04-30T00:50:46;96094.53;;;10.67;100.00
71457;BME280;59263;48.160;11.752;2023-04-30T00:53:11;96094.53;;;10.77;100.00
71457;BME280;59263;48.160;11.752;2023-04-30T00:55:39;96080.66;;;10.68;100.00
71457;BME280;59263;48.160;11.752;2023-04-30T00:58:06;96062.00;;;10.55;100.00
71457;BME280;59263;48.160;11.752;2023-04-30T01:00:32;96076.44;;;10.57;100.00
71457;BME280;59263;48.160;11.752;2023-04-30T01:02:57;96085.03;;;10.58;100.00
71457;BME280;59263;48.160;11.752;2023-04-30T01:05:23;96077.13;;;10.50;100.00
71457;BME280;59263;48.160;11.752;2023-04-30T01:07:48;96083.78;;;10.62;100.00
71457;BME280;59263;48.160;11.752;2023-04-30T01:10:15;96088.13;;;10.71;100.00
71457;BME280;59263;48.160;11.752;2023-04-30T01:12:54;96098.34;;;10.63;100.00
71457;BME280;59263;48.160;11.752;2023-04-30T01:18:12;96098.47;;;10.71;100.00
71457;BME280;59263;48.160;11.752;2023-04-30T01:20:49;96098.34;;;10.63;100.00
71457;BME280;59263;48.160;11.752;2023-04-30T01:23:46;96084.06;;;10.69;100.00
71457;BME280;59263;48.160;11.752;2023-04-30T01:29:15;96099.97;;;10.64;100.00
71457;BME280;59263;48.160;11.752;2023-04-30T01:31:43;96092.38;;;10.72;100.00
71457;BME280;59263;48.160;11.752;2023-04-30T01:34:09;96086.91;;;10.65;100.00
71457;BME280;59263;48.160;11.752;2023-04-30T01:48:28;96092.34;;;10.33;100.00
71457;BME280;59263;48.160;11.752;2023-04-30T01:51:13;96114.66;;;10.34;100.00
71457;BME280;59263;48.160;11.752;2023-04-30T01:53:41;96112.91;;;10.45;100.00
71457;BME280;59263;48.160;11.752;2023-04-30T01:56:11;96097.81;;;10.50;100.00
71457;BME280;59263;48.160;11.752;2023-04-30T01:58:37;96107.06;;;10.62;100.00
71457;BME280;59263;48.160;11.752;2023-04-30T02:01:04;96102.84;;;10.51;100.00
71457;BME280;59263;48.160;11.752;2023-04-30T02:03:31;96106.50;;;10.49;100.00
71457;BME280;59263;48.160;11.752;2023-04-30T02:05:57;96101.06;;;10.52;100.00
71457;BME280;59263;48.160;11.752;2023-04-30T02:08:23;96110.75;;;10.50;100.00
71457;BME280;59263;48.160;11.752;2023-04-30T02:10:48;96101.78;;;10.54;100.00
71457;BME280;59263;48.160;11.752;2023-04-30T02:13:13;96100.25;;;10.41;100.00
71457;BME280;59263;48.160;11.752;2023-04-30T02:15:39;96105.72;;;10.38;100.00
71457;BME280;59263;48.160;11.752;2023-04-30T02:18:04;96087.25;;;10.22;100.00
71457;BME280;59263;48.160;11.752;2023-04-30T02:20:30;96112.06;;;10.34;100.00
71457;BME280;59263;48.160;11.752;2023-04-30T02:22:55;96107.34;;;10.39;100.00
71457;BME280;59263;48.160;11.752;2023-04-30T02:25:20;96109.78;;;10.31;100.00
71457;BME280;59263;48.160;11.752;2023-04-30T02:27:46;96058.41;;;10.17;100.00
71457;BME280;59263;48.160;11.752;2023-04-30T02:30:11;96119.19;;;10.52;100.00
71457;BME280;59263;48.160;11.752;2023-04-30T02:32:36;96113.84;;;10.34;100.00
71457;BME280;59263;48.160;11.752;2023-04-30T02:35:02;96113.72;;;10.35;100.00
71457;BME280;59263;48.160;11.752;2023-04-30T02:37:27;96129.94;;;10.47;100.00
71457;BME280;59263;48.160;11.752;2023-04-30T02:39:52;96125.59;;;10.57;100.00
71457;BME280;59263;48.160;11.752;2023-04-30T02:42:18;96136.06;;;10.56;100.00
71457;BME280;59263;48.160;11.752;2023-04-30T02:44:43;96124.19;;;10.34;100.00
71457;BME280;59263;48.160;11.752;2023-04-30T02:47:09;96128.25;;;10.27;100.00
71457;BME280;59263;48.160;11.752;2023-04-30T02:49:34;96127.28;;;10.18;100.00
71457;BME280;59263;48.160;11.752;2023-04-30T02:52:00;96134.78;;;10.21;100.00
71457;BME280;59263;48.160;11.752;2023-04-30T02:54:25;96133.41;;;10.17;100.00
71457;BME280;59263;48.160;11.752;2023-04-30T02:56:51;96103.72;;;10.02;100.00
71457;BME280;59263;48.160;11.752;2023-04-30T02:59:16;96112.13;;;10.04;100.00
71457;BME280;59263;48.160;11.752;2023-04-30T03:01:41;96125.22;;;10.12;100.00
71457;BME280;59263;48.160;11.752;2023-04-30T03:04:07;96136.41;;;10.12;100.00
71457;BME280;59263;48.160;11.752;2023-04-30T03:06:32;96130.13;;;10.15;100.00
71457;BME280;59263;48.160;11.752;2023-04-30T03:08:58;96137.72;;;10.07;100.00
71457;BME280;59263;48.160;11.752;2023-04-30T03:11:24;96117.31;;;10.04;100.00
71457;BME280;59263;48.160;11.752;2023-04-30T03:13:50;96116.22;;;10.06;100.00
71457;BME280;59263;48.160;11.752;2023-04-30T03:16:19;96124.94;;;10.15;100.00
71457;BME280;59263;48.160;11.752;2023-04-30T03:18:45;96118.84;;;10.16;100.00
71457;BME280;59263;48.160;11.752;2023-04-30T03:21:11;96136.66;;;10.19;100.00
71457;BME280;59263;48.160;11.752;2023-04-30T03:23:36;96135.13;;;10.07;100.00
71457;BME280;59263;48.160;11.752;2023-04-30T03:26:01;96094.75;;;9.75;100.00
71457;BME280;59263;48.160;11.752;2023-04-30T03:28:27;96132.81;;;9.94;100.00
71457;BME280;59263;48.160;11.752;2023-04-30T03:30:52;96113.19;;;9.91;100.00
71457;BME280;59263;48.160;11.752;2023-04-30T03:33:17;96129.56;;;10.02;100.00
71457;BME280;59263;48.160;11.752;2023-04-30T03:35:43;96111.03;;;9.97;100.00
71457;BME280;59263;48.160;11.752;2023-04-30T03:38:08;96103.81;;;9.90;100.00
71457;BME280;59263;48.160;11.752;2023-04-30T03:40:34;96098.19;;;9.85;100.00
71457;BME280;59263;48.160;11.752;2023-04-30T03:42:59;96103.97;;;9.99;100.00
71457;BME280;59263;48.160;11.752;2023-04-30T03:45:24;96124.09;;;9.95;100.00
71457;BME280;59263;48.160;11.752;2023-04-30T03:47:50;96112.63;;;9.88;100.00
71457;BME280;59263;48.160;11.752;2023-04-30T03:50:17;96092.19;;;9.75;100.00
71457;BME280;59263;48.160;11.752;2023-04-30T03:52:43;96100.88;;;9.74;100.00
71457;BME280;59263;48.160;11.752;2023-04-30T03:55:09;96117.25;;;9.84;100.00
71457;BME280;59263;48.160;11.752;2023-04-30T03:57:35;96078.84;;;9.70;100.00
71457;BME280;59263;48.160;11.752;2023-04-30T04:00:00;96108.78;;;9.82;100.00
71457;BME280;59263;48.160;11.752;2023-04-30T04:02:26;96084.81;;;9.61;100.00
71457;BME280;59263;48.160;11.752;2023-04-30T04:04:52;96103.47;;;9.74;100.00
71457;BME280;59263;48.160;11.752;2023-04-30T04:07:17;96102.44;;;9.86;100.00
71457;BME280;59263;48.160;11.752;2023-04-30T04:09:43;96091.22;;;9.66;100.00
71457;BME280;59263;48.160;11.752;2023-04-30T04:12:08;96111.75;;;9.68;100.00
71457;BME280;59263;48.160;11.752;2023-04-30T04:14:33;96108.06;;;9.61;100.00
71457;BME280;59263;48.160;11.752;2023-04-30T04:16:59;96115.41;;;9.65;100.00
71457;BME280;59263;48.160;11.752;2023-04-30T04:19:25;96114.44;;;9.57;100.00
71457;BME280;59263;48.160;11.752;2023-04-30T04:21:51;96124.78;;;9.57;100.00
71457;BME280;59263;48.160;11.752;2023-04-30T04:24:16;96115.19;;;9.48;100.00
71457;BME280;59263;48.160;11.752;2023-04-30T04:26:42;96111.66;;;9.49;100.00
71457;BME280;59263;48.160;11.752;2023-04-30T04:29:07;96121.19;;;9.48;100.00
71457;BME280;59263;48.160;11.752;2023-04-30T04:31:33;96124.50;;;9.60;100.00
71457;BME280;59263;48.160;11.752;2023-04-30T04:34:01;96115.19;;;9.48;100.00
71457;BME280;59263;48.160;11.752;2023-04-30T04:36:27;96131.13;;;9.53;100.00
71457;BME280;59263;48.160;11.752;2023-04-30T04:38:53;96121.47;;;9.55;100.00
71457;BME280;59263;48.160;11.752;2023-04-30T04:41:19;96139.09;;;9.70;100.00
71457;BME280;59263;48.160;11.752;2023-04-30T04:43:45;96134.81;;;9.60;100.00
71457;BME280;59263;48.160;11.752;2023-04-30T04:46:11;96135.53;;;9.62;100.00
71457;BME280;59263;48.160;11.752;2023-04-30T04:48:36;96144.91;;;9.63;100.00
71457;BME280;59263;48.160;11.752;2023-04-30T04:51:01;96140.00;;;9.60;100.00
71457;BME280;59263;48.160;11.752;2023-04-30T04:53:27;96144.66;;;9.66;100.00
71457;BME280;59263;48.160;11.752;2023-04-30T04:55:52;96142.06;;;9.66;100.00
71457;BME280;59263;48.160;11.752;2023-04-30T04:58:17;96159.38;;;9.75;100.00
71457;BME280;59263;48.160;11.752;2023-04-30T05:00:43;96151.50;;;9.77;100.00
71457;BME280;59263;48.160;11.752;2023-04-30T05:03:09;96141.56;;;9.72;100.00
71457;BME280;59263;48.160;11.752;2023-04-30T05:05:34;96114.16;;;9.60;100.00
71457;BME280;59263;48.160;11.752;2023-04-30T05:08:00;96152.47;;;9.85;100.00
71457;BME280;59263;48.160;11.752;2023-04-30T05:10:25;96141.16;;;9.77;100.00
71457;BME280;59263;48.160;11.752;2023-04-30T05:12:50;96142.94;;;9.76;100.00
71457;BME280;59263;48.160;11.752;2023-04-30T05:15:15;96142.84;;;9.87;100.00
71457;BME280;59263;48.160;11.752;2023-04-30T05:17:41;96146.94;;;10.00;100.00
71457;BME280;59263;48.160;11.752;2023-04-30T05:20:07;96151.56;;;9.96;100.00
71457;BME280;59263;48.160;11.752;2023-04-30T05:22:33;96155.13;;;10.05;100.00
71457;BME280;59263;48.160;11.752;2023-04-30T05:24:58;96157.72;;;10.05;100.00
71457;BME280;59263;48.160;11.752;2023-04-30T05:27:23;96160.97;;;10.28;100.00
71457;BME280;59263;48.160;11.752;2023-04-30T05:29:49;96139.34;;;10.08;100.00
71457;BME280;59263;48.160;11.752;2023-04-30T05:32:14;96161.59;;;10.20;100.00
71457;BME280;59263;48.160;11.752;2023-04-30T05:34:39;96163.88;;;10.23;100.00
71457;BME280;59263;48.160;11.752;2023-04-30T05:37:05;96162.72;;;10.27;100.00
71457;BME280;59263;48.160;11.752;2023-04-30T05:39:30;96157.41;;;10.29;100.00
71457;BME280;59263;48.160;11.752;2023-04-30T05:41:55;96175.81;;;10.35;100.00
71457;BME280;59263;48.160;11.752;2023-04-30T05:44:21;96151.31;;;10.39;100.00
71457;BME280;59263;48.160;11.752;2023-04-30T05:46:46;96166.69;;;10.41;100.00
71457;BME280;59263;48.160;11.752;2023-04-30T05:49:11;96161.41;;;10.43;100.00
71457;BME280;59263;48.160;11.752;2023-04-30T05:51:36;96164.91;;;10.41;100.00
71457;BME280;59263;48.160;11.752;2023-04-30T05:54:02;96169.31;;;10.51;100.00
71457;BME280;59263;48.160;11.752;2023-04-30T05:56:27;96165.63;;;10.63;100.00
71457;BME280;59263;48.160;11.752;2023-04-30T05:58:54;96150.13;;;10.53;100.00
71457;BME280;59263;48.160;11.752;2023-04-30T06:01:19;96152.56;;;10.55;100.00
71457;BME280;59263;48.160;11.752;2023-04-30T06:03:45;96148.47;;;10.62;100.00
71457;BME280;59263;48.160;11.752;2023-04-30T06:06:11;96144.94;;;10.73;100.00
71457;BME280;59263;48.160;11.752;2023-04-30T06:08:36;96151.91;;;10.72;100.00
71457;BME280;59263;48.160;11.752;2023-04-30T06:11:02;96167.56;;;10.80;100.00
71457;BME280;59263;48.160;11.752;2023-04-30T06:13:30;96153.66;;;10.81;100.00
71457;BME280;59263;48.160;11.752;2023-04-30T06:15:56;96148.75;;;10.78;100.00
71457;BME280;59263;48.160;11.752;2023-04-30T06:18:21;96139.50;;;10.85;100.00
71457;BME280;59263;48.160;11.752;2023-04-30T06:20:47;96151.63;;;10.95;100.00
71457;BME280;59263;48.160;11.752;2023-04-30T06:23:12;96128.31;;;10.95;100.00
71457;BME280;59263;48.160;11.752;2023-04-30T06:25:37;96139.63;;;11.13;100.00
71457;BME280;59263;48.160;11.752;2023-04-30T06:28:03;96146.81;;;11.19;100.00
71457;BME280;59263;48.160;11.752;2023-04-30T06:30:30;96146.38;;;11.33;100.00
71457;BME280;59263;48.160;11.752;2023-04-30T06:32:56;96142.97;;;11.43;100.00
71457;BME280;59263;48.160;11.752;2023-04-30T06:35:21;96112.97;;;11.30;100.00
71457;BME280;59263;48.160;11.752;2023-04-30T06:37:46;96132.06;;;11.39;100.00
71457;BME280;59263;48.160;11.752;2023-04-30T06:40:12;96139.41;;;11.44;100.00
71457;BME280;59263;48.160;11.752;2023-04-30T06:42:37;96130.78;;;11.53;100.00
71457;BME280;59263;48.160;11.752;2023-04-30T06:45:03;96118.91;;;11.60;100.00
71457;BME280;59263;48.160;11.752;2023-04-30T06:47:30;96129.06;;;11.81;100.00
71457;BME280;59263;48.160;11.752;2023-04-30T06:50:01;96120.41;;;12.00;100.00
71457;BME280;59263;48.160;11.752;2023-04-30T06:52:27;96130.59;;;12.11;100.00
71457;BME280;59263;48.160;11.752;2023-04-30T06:54:52;96114.59;;;12.16;100.00
71457;BME280;59263;48.160;11.752;2023-04-30T06:57:17;96124.47;;;12.30;100.00
71457;BME280;59263;48.160;11.752;2023-04-30T06:59:43;96135.66;;;12.30;100.00
71457;BME280;59263;48.160;11.752;2023-04-30T07:02:09;96117.34;;;12.14;100.00
71457;BME280;59263;48.160;11.752;2023-04-30T07:04:34;96083.31;;;11.90;100.00
71457;BME280;59263;48.160;11.752;2023-04-30T07:06:59;96117.06;;;12.17;100.00
71457;BME280;59263;48.160;11.752;2023-04-30T07:09:29;96125.38;;;12.39;100.00
71457;BME280;59263;48.160;11.752;2023-04-30T07:11:54;96115.38;;;12.44;100.00
71457;BME280;59263;48.160;11.752;2023-04-30T07:14:23;96103.34;;;12.25;100.00
71457;BME280;59263;48.160;11.752;2023-04-30T07:16:52;96091.25;;;12.33;100.00
71457;BME280;59263;48.160;11.752;2023-04-30T07:19:18;96061.03;;;12.24;100.00
71457;BME280;59263;48.160;11.752;2023-04-30T07:21:48;96063.00;;;12.30;100.00
71457;BME280;59263;48.160;11.752;2023-04-30T07:24:16;96060.13;;;12.33;100.00
71457;BME280;59263;48.160;11.752;2023-04-30T07:26:44;96059.06;;;12.26;100.00
71457;BME280;59263;48.160;11.752;2023-04-30T07:29:17;96050.03;;;12.30;100.00
71457;BME280;59263;48.160;11.752;2023-04-30T07:31:43;96069.03;;;12.49;100.00
71457;BME280;59263;48.160;11.752;2023-04-30T07:34:10;96086.44;;;12.92;100.00
71457;BME280;59263;48.160;11.752;2023-04-30T07:36:37;96120.59;;;13.23;100.00
71457;BME280;59263;48.160;11.752;2023-04-30T07:39:03;96063.78;;;13.02;100.00
71457;BME280;59263;48.160;11.752;2023-04-30T07:41:29;96076.66;;;13.12;100.00
71457;BME280;59263;48.160;11.752;2023-04-30T07:43:55;96076.00;;;13.10;100.00
71457;BME280;59263;48.160;11.752;2023-04-30T07:46:23;96091.66;;;13.18;100.00
71457;BME280;59263;48.160;11.752;2023-04-30T07:48:49;96054.25;;;13.11;100.00
71457;BME280;59263;48.160;11.752;2023-04-30T07:51:18;96062.84;;;13.29;100.00
71457;BME280;59263;48.160;11.752;2023-04-30T07:53:43;96077.56;;;13.47;100.00
71457;BME280;59263;48.160;11.752;2023-04-30T07:56:09;96091.34;;;13.73;100.00
71457;BME280;59263;48.160;11.752;2023-04-30T07:58:34;96091.22;;;13.83;100.00
71457;BME280;59263;48.160;11.752;2023-04-30T08:01:03;96085.97;;;14.09;100.00
71457;BME280;59263;48.160;11.752;2023-04-30T08:03:37;96072.47;;;14.14;100.00
71457;BME280;59263;48.160;11.752;2023-04-30T08:06:05;96060.91;;;14.16;100.00
71457;BME280;59263;48.160;11.752;2023-04-30T08:08:32;96033.56;;;14.12;100.00
71457;BME280;59263;48.160;11.752;2023-04-30T08:10:57;96037.22;;;14.44;100.00
71457;BME280;59263;48.160;11.752;2023-04-30T08:13:23;96101.41;;;15.10;100.00
71457;BME280;59263;48.160;11.752;2023-04-30T08:15:48;96084.44;;;15.31;100.00
71457;BME280;59263;48.160;11.752;2023-04-30T08:18:13;96097.16;;;15.17;100.00
71457;BME280;59263;48.160;11.752;2023-04-30T08:20:39;96094.72;;;15.16;100.00
71457;BME280;59263;48.160;11.752;2023-04-30T08:23:04;96097.94;;;15.34;100.00
71457;BME280;59263;48.160;11.752;2023-04-30T08:25:30;96086.00;;;15.56;100.00
71457;BME280;59263;48.160;11.752;2023-04-30T08:27:55;96077.81;;;15.76;100.00
71457;BME280;59263;48.160;11.752;2023-04-30T08:30:21;96038.72;;;15.67;100.00
71457;BME280;59263;48.160;11.752;2023-04-30T08:32:47;96080.28;;;16.08;100.00
71457;BME280;59263;48.160;11.752;2023-04-30T08:35:13;96072.41;;;16.16;100.00
71457;BME280;59263;48.160;11.752;2023-04-30T08:37:38;96079.84;;;16.28;100.00
71457;BME280;59263;48.160;11.752;2023-04-30T08:40:04;96078.56;;;16.32;100.00
71457;BME280;59263;48.160;11.752;2023-04-30T08:42:35;96080.41;;;16.46;100.00
71457;BME280;59263;48.160;11.752;2023-04-30T08:45:02;96086.09;;;16.50;100.00
71457;BME280;59263;48.160;11.752;2023-04-30T08:47:27;96071.41;;;16.49;100.00
71457;BME280;59263;48.160;11.752;2023-04-30T08:49:53;96082.22;;;16.68;100.00
71457;BME280;59263;48.160;11.752;2023-04-30T08:52:18;96093.72;;;16.59;100.00
71457;BME280;59263;48.160;11.752;2023-04-30T08:54:46;96083.00;;;16.46;100.00
71457;BME280;59263;48.160;11.752;2023-04-30T08:57:12;96083.53;;;16.64;100.00
71457;BME280;59263;48.160;11.752;2023-04-30T08:59:38;96083.34;;;16.74;100.00
71457;BME280;59263;48.160;11.752;2023-04-30T09:02:04;96082.28;;;16.83;100.00
71457;BME280;59263;48.160;11.752;2023-04-30T09:04:30;96101.41;;;17.07;100.00
71457;BME280;59263;48.160;11.752;2023-04-30T09:06:55;96091.47;;;17.02;100.00
71457;BME280;59263;48.160;11.752;2023-04-30T09:09:27;96071.44;;;16.95;100.00
71457;BME280;59263;48.160;11.752;2023-04-30T09:12:10;96096.91;;;17.15;100.00
71457;BME280;59263;48.160;11.752;2023-04-30T09:14:37;96093.97;;;16.73;100.00
71457;BME280;59263;48.160;11.752;2023-04-30T09:17:04;96100.34;;;16.47;100.00
71457;BME280;59263;48.160;11.752;2023-04-30T09:19:30;96096.91;;;16.15;100.00
71457;BME280;59263;48.160;11.752;2023-04-30T09:21:55;96097.81;;;16.00;100.00
71457;BME280;59263;48.160;11.752;2023-04-30T09:24:22;96101.28;;;15.76;100.00
71457;BME280;59263;48.160;11.752;2023-04-30T09:26:47;96091.53;;;15.53;100.00
71457;BME280;59263;48.160;11.752;2023-04-30T09:29:13;96098.28;;;15.39;100.00
71457;BME280;59263;48.160;11.752;2023-04-30T09:31:50;96088.84;;;15.22;100.00
71457;BME280;59263;48.160;11.752;2023-04-30T09:34:16;96106.91;;;15.23;100.00
71457;BME280;59263;48.160;11.752;2023-04-30T09:36:51;96107.09;;;15.22;100.00
71457;BME280;59263;48.160;11.752;2023-04-30T09:39:18;96101.72;;;15.23;100.00
71457;BME280;59263;48.160;11.752;2023-04-30T09:41:44;96102.06;;;15.20;100.00
71457;BME280;59263;48.160;11.752;2023-04-30T09:44:30;96106.94;;;15.32;100.00
71457;BME280;59263;48.160;11.752;2023-04-30T09:46:56;96100.25;;;15.29;100.00
71457;BME280;59263;48.160;11.752;2023-04-30T09:49:22;96106.91;;;15.23;100.00
71457;BME280;59263;48.160;11.752;2023-04-30T09:51:58;96099.91;;;15.16;100.00
71457;BME280;59263;48.160;11.752;2023-04-30T09:54:31;96102.06;;;15.04;100.00
71457;BME280;59263;48.160;11.752;2023-04-30T09:56:58;96100.41;;;15.11;100.00
71457;BME280;59263;48.160;11.752;2023-04-30T09:59:33;96090.66;;;15.05;100.00
71457;BME280;59263;48.160;11.752;2023-04-30T10:02:04;96098.47;;;15.21;100.00
71457;BME280;59263;48.160;11.752;2023-04-30T10:04:36;96101.38;;;15.27;100.00
71457;BME280;59263;48.160;11.752;2023-04-30T10:07:09;96102.72;;;15.14;100.00
71457;BME280;59263;48.160;11.752;2023-04-30T10:09:43;96100.13;;;15.06;100.00
71457;BME280;59263;48.160;11.752;2023-04-30T10:12:21;96087.06;;;15.14;100.00
71457;BME280;59263;48.160;11.752;2023-04-30T10:15:01;96092.44;;;15.13;100.00
71457;BME280;59263;48.160;11.752;2023-04-30T10:17:31;96091.94;;;15.25;100.00
71457;BME280;59263;48.160;11.752;2023-04-30T10:20:03;96074.69;;;15.24;100.00
71457;BME280;59263;48.160;11.752;2023-04-30T10:22:33;96096.31;;;15.41;100.00
71457;BME280;59263;48.160;11.752;2023-04-30T10:24:59;96091.44;;;15.46;100.00
71457;BME280;59263;48.160;11.752;2023-04-30T10:27:26;96072.69;;;15.27;100.00
71457;BME280;59263;48.160;11.752;2023-04-30T10:29:53;96075.63;;;15.40;100.00
71457;BME280;59263;48.160;11.752;2023-04-30T10:32:19;96064.22;;;15.33;100.00
71457;BME280;59263;48.160;11.752;2023-04-30T10:34:58;96077.91;;;15.43;100.00
71457;BME280;59263;48.160;11.752;2023-04-30T10:38:35;96081.81;;;15.47;100.00
71457;BME280;59263;48.160;11.752;2023-04-30T10:40:37;96058.47;;;15.45;100.00
71457;BME280;59263;48.160;11.752;2023-04-30T10:43:02;96045.63;;;15.44;100.00
71457;BME280;59263;48.160;11.752;2023-04-30T10:45:35;96073.91;;;15.71;100.00
71457;BME280;59263;48.160;11.752;2023-04-30T10:48:02;96020.81;;;15.48;100.00
71457;BME280;59263;48.160;11.752;2023-04-30T10:50:28;96028.94;;;15.53;100.00
71457;BME280;59263;48.160;11.752;2023-04-30T10:53:04;96030.56;;;15.70;100.00
71457;BME280;59263;48.160;11.752;2023-04-30T10:55:30;96029.88;;;15.77;100.00
71457;BME280;59263;48.160;11.752;2023-04-30T10:57:57;96044.03;;;15.82;100.00
71457;BME280;59263;48.160;11.752;2023-04-30T11:00:27;96033.59;;;15.82;100.00
71457;BME280;59263;48.160;11.752;2023-04-30T11:02:57;96044.16;;;15.89;100.00
71457;BME280;59263;48.160;11.752;2023-04-30T11:05:35;96044.13;;;15.97;100.00
71457;BME280;59263;48.160;11.752;2023-04-30T11:08:02;96023.72;;;15.69;100.00
71457;BME280;59263;48.160;11.752;2023-04-30T11:10:31;96010.97;;;15.75;100.00
71457;BME280;59263;48.160;11.752;2023-04-30T11:13:02;96027.19;;;15.93;100.00
71457;BME280;59263;48.160;11.752;2023-04-30T11:15:46;96020.63;;;15.97;100.00
71457;BME280;59263;48.160;11.752;2023-04-30T11:18:12;96045.22;;;16.34;100.00
71457;BME280;59263;48.160;11.752;2023-04-30T11:20:48;96019.84;;;16.19;100.00
71457;BME280;59263;48.160;11.752;2023-04-30T11:23:16;96020.19;;;16.16;100.00
71457;BME280;59263;48.160;11.752;2023-04-30T11:25:46;95998.63;;;16.00;100.00
71457;BME280;59263;48.160;11.752;2023-04-30T11:28:17;96037.19;;;16.43;100.00
71457;BME280;59263;48.160;11.752;2023-04-30T11:30:57;96010.91;;;16.60;100.00
71457;BME280;59263;48.160;11.752;2023-04-30T11:33:27;96028.09;;;17.00;100.00
71457;BME280;59263;48.160;11.752;2023-04-30T11:35:54;96016.03;;;17.29;100.00
71457;BME280;59263;48.160;11.752;2023-04-30T11:38:33;96014.69;;;17.33;100.00
71457;BME280;59263;48.160;11.752;2023-04-30T11:41:00;95999.09;;;17.25;100.00
71457;BME280;59263;48.160;11.752;2023-04-30T11:43:32;96024.16;;;17.34;100.00
71457;BME280;59263;48.160;11.752;2023-04-30T11:48:36;96005.38;;;17.15;100.00
71457;BME280;59263;48.160;11.752;2023-04-30T11:51:12;96017.75;;;17.22;100.00
71457;BME280;59263;48.160;11.752;2023-04-30T11:53:38;96005.22;;;17.17;100.00
71457;BME280;59263;48.160;11.752;2023-04-30T11:56:03;96022.16;;;17.06;100.00
71457;BME280;59263;48.160;11.752;2023-04-30T11:58:35;96005.69;;;16.83;100.00
71457;BME280;59263;48.160;11.752;2023-04-30T12:01:03;96020.28;;;16.77;100.00
71457;BME280;59263;48.160;11.752;2023-04-30T12:03:29;96009.41;;;16.65;100.00
71457;BME280;59263;48.160;11.752;2023-04-30T12:05:55;96009.31;;;16.59;100.00
71457;BME280;59263;48.160;11.752;2023-04-30T12:08:20;96005.34;;;16.63;100.00
71457;BME280;59263;48.160;11.752;2023-04-30T12:10:45;95999.94;;;16.64;100.00
71457;BME280;59263;48.160;11.752;2023-04-30T12:13:14;96008.06;;;16.69;100.00
71457;BME280;59263;48.160;11.752;2023-04-30T12:15:41;96009.75;;;16.62;100.00
71457;BME280;59263;48.160;11.752;2023-04-30T12:18:11;96008.50;;;16.58;100.00
71457;BME280;59263;48.160;11.752;2023-04-30T12:20:38;96003.97;;;16.52;100.00
71457;BME280;59263;48.160;11.752;2023-04-30T12:23:04;96010.47;;;16.56;100.00
71457;BME280;59263;48.160;11.752;2023-04-30T12:25:39;96009.47;;;16.57;100.00
71457;BME280;59263;48.160;11.752;2023-04-30T12:28:05;96006.91;;;16.49;100.00
71457;BME280;59263;48.160;11.752;2023-04-30T12:30:30;96007.50;;;16.59;100.00
71457;BME280;59263;48.160;11.752;2023-04-30T12:32:57;95999.09;;;16.49;100.00
71457;BME280;59263;48.160;11.752;2023-04-30T12:35:23;95980.88;;;16.41;100.00
71457;BME280;59263;48.160;11.752;2023-04-30T12:38:00;96008.50;;;16.58;100.00
71457;BME280;59263;48.160;11.752;2023-04-30T12:40:26;95992.59;;;16.45;100.00
71457;BME280;59263;48.160;11.752;2023-04-30T12:42:59;96000.88;;;16.49;100.00
71457;BME280;59263;48.160;11.752;2023-04-30T12:45:44;96002.69;;;16.48;100.00
71457;BME280;59263;48.160;11.752;2023-04-30T12:48:11;96007.91;;;16.48;100.00
71457;BME280;59263;48.160;11.752;2023-04-30T12:50:37;95993.31;;;16.39;100.00
71457;BME280;59263;48.160;11.752;2023-04-30T12:53:04;96006.66;;;16.44;100.00
71457;BME280;59263;48.160;11.752;2023-04-30T12:55:30;95994.91;;;16.40;100.00
71457;BME280;59263;48.160;11.752;2023-04-30T12:58:06;96004.31;;;16.49;100.00
71457;BME280;59263;48.160;11.752;2023-04-30T13:00:48;95993.69;;;16.51;100.00
71457;BME280;59263;48.160;11.752;2023-04-30T13:03:15;95991.16;;;16.57;100.00